createdAt,value
2022-11-05T00:01:01.174Z,53174.31
2022-11-05T00:02:03.969Z,53071.10
2022-11-05T00:03:06.526Z,52981.92
2022-11-05T00:04:08.958Z,52985.92
2022-11-05T00:05:11.528Z,52948.85
2022-11-05T00:06:14.031Z,52975.91
2022-11-05T00:07:16.549Z,53101.16
2022-11-05T00:08:18.974Z,53080.12
2022-11-05T00:09:21.411Z,53122.20
2022-11-05T00:10:23.777Z,53129.22
2022-11-05T00:11:26.290Z,53172.31
2022-11-05T00:12:28.795Z,53178.32
2022-11-05T00:13:31.211Z,53099.16
2022-11-05T00:14:33.635Z,53167.30
2022-11-05T00:15:36.070Z,53255.48
2022-11-05T00:16:38.858Z,53188.34
2022-11-05T00:17:41.453Z,53216.40
2022-11-05T00:18:44.101Z,53180.32
2022-11-05T00:19:46.771Z,53127.21
2022-11-05T00:20:49.541Z,53101.16
2022-11-05T00:21:51.991Z,53139.24
2022-11-05T00:22:54.523Z,53190.34
2022-11-05T00:23:57.057Z,53231.43
2022-11-05T00:25:01.566Z,53270.51
2022-11-05T00:26:04.561Z,53316.61
2022-11-05T00:27:07.584Z,53364.71
2022-11-05T00:28:10.283Z,53311.60
2022-11-05T00:29:19.931Z,53275.52
2022-11-05T00:30:22.686Z,53191.35
2022-11-05T00:31:25.515Z,53185.34
2022-11-05T00:32:28.141Z,53172.31
2022-11-05T00:33:30.512Z,53194.35
2022-11-05T00:34:33.011Z,53232.43
2022-11-05T00:35:35.891Z,53173.31
2022-11-05T00:36:38.546Z,53014.98
2022-11-05T00:37:45.602Z,53012.98
2022-11-05T00:38:46.575Z,53003.96
2022-11-05T00:39:49.204Z,53052.06
2022-11-05T00:40:53.910Z,53144.25
2022-11-05T00:41:56.625Z,53128.21
2022-11-05T00:42:59.516Z,53072.10
2022-11-05T00:44:02.260Z,53053.06
2022-11-05T00:45:05.269Z,53106.17
2022-11-05T00:46:07.985Z,53145.25
2022-11-05T00:47:10.665Z,53050.05
2022-11-05T00:48:13.900Z,52984.92
2022-11-05T00:49:16.199Z,52978.91
2022-11-05T00:50:18.618Z,53040.04
2022-11-05T00:51:20.980Z,53085.13
2022-11-05T00:52:23.415Z,53123.20
2022-11-05T00:53:26.326Z,53023.00
2022-11-05T00:54:28.844Z,53061.08
2022-11-05T00:55:31.417Z,52998.95
2022-11-05T00:56:33.844Z,53013.98
2022-11-05T00:57:36.616Z,53011.98
2022-11-05T00:58:39.536Z,52981.92
2022-11-05T00:59:42.430Z,53011.98
2022-11-05T01:00:45.560Z,52871.70
2022-11-05T01:01:48.182Z,52951.86
2022-11-05T01:02:51.423Z,52953.86
2022-11-05T01:03:54.593Z,53044.04
2022-11-05T01:04:57.389Z,53138.23
2022-11-05T01:06:00.155Z,53108.17
2022-11-05T01:07:02.906Z,53052.06
2022-11-05T01:08:05.613Z,52954.86
2022-11-05T01:09:08.635Z,52997.95
2022-11-05T01:10:11.437Z,53040.04
2022-11-05T01:11:14.227Z,53039.03
2022-11-05T01:12:16.915Z,52889.73
2022-11-05T01:13:20.106Z,52875.70
2022-11-05T01:14:22.972Z,52904.76
2022-11-05T01:15:25.482Z,52950.85
2022-11-05T01:16:28.103Z,52959.87
2022-11-05T01:17:30.653Z,52945.84
2022-11-05T01:18:33.671Z,52847.64
2022-11-05T01:19:36.759Z,52933.82
2022-11-05T01:20:39.408Z,52947.85
2022-11-05T01:21:42.474Z,53000.95
2022-11-05T01:22:45.406Z,53115.19
2022-11-05T01:23:47.958Z,53056.07
2022-11-05T01:24:50.408Z,53005.96
2022-11-05T01:25:53.080Z,53016.99
2022-11-05T01:27:00.866Z,52981.92
2022-11-05T01:28:03.857Z,52979.91
2022-11-05T01:29:06.835Z,52963.88
2022-11-05T01:30:09.800Z,52997.95
2022-11-05T01:31:12.729Z,53047.05
2022-11-05T01:32:15.255Z,53096.15
2022-11-05T01:33:17.967Z,53182.33
2022-11-05T01:34:20.622Z,53198.36
2022-11-05T01:35:23.561Z,53159.28
2022-11-05T01:36:25.841Z,53122.20
2022-11-05T01:37:28.402Z,53069.09
2022-11-05T01:38:30.905Z,53077.11
2022-11-05T01:39:33.282Z,53109.18
2022-11-05T01:40:35.824Z,53129.22
2022-11-05T01:41:38.377Z,53232.43
2022-11-05T01:42:40.763Z,53267.51
2022-11-05T01:43:43.498Z,53219.41
2022-11-05T01:44:46.153Z,53216.40
2022-11-05T01:45:48.755Z,53159.28
2022-11-05T01:46:51.238Z,53130.22
2022-11-05T01:47:53.714Z,53088.13
2022-11-05T01:49:01.802Z,53024.00
2022-11-05T01:50:00.403Z,53057.07
2022-11-05T01:51:03.021Z,53230.43
2022-11-05T01:52:05.687Z,53244.46
2022-11-05T01:53:08.853Z,53228.42
2022-11-05T01:54:11.917Z,53296.57
2022-11-05T01:55:14.631Z,53318.61
2022-11-05T01:56:17.499Z,53243.46
2022-11-05T01:57:19.952Z,53141.24
2022-11-05T01:58:22.301Z,53211.39
2022-11-05T01:59:24.763Z,53303.58
2022-11-05T02:00:27.334Z,53292.56
2022-11-05T02:01:30.031Z,53226.42
2022-11-05T02:02:32.960Z,53252.48
2022-11-05T02:03:35.936Z,53226.42
2022-11-05T02:04:38.919Z,53120.20
2022-11-05T02:05:41.623Z,53094.14
2022-11-05T02:06:44.639Z,53188.34
2022-11-05T02:07:47.323Z,53194.35
2022-11-05T02:08:50.506Z,53203.37
2022-11-05T02:09:53.097Z,53146.25
2022-11-05T02:10:55.744Z,53207.38
2022-11-05T02:11:58.782Z,53130.22
2022-11-05T02:13:01.589Z,53135.23
2022-11-05T02:14:04.403Z,53219.41
2022-11-05T02:15:07.294Z,53290.55
2022-11-05T02:16:09.888Z,53246.46
2022-11-05T02:17:15.803Z,53231.43
2022-11-05T02:18:18.271Z,53271.52
2022-11-05T02:19:20.709Z,53241.45
2022-11-05T02:20:23.346Z,53221.41
2022-11-05T02:21:25.940Z,53154.27
2022-11-05T02:22:28.642Z,53124.21
2022-11-05T02:23:31.123Z,53192.35
2022-11-05T02:24:33.527Z,53190.34
2022-11-05T02:25:35.959Z,53150.26
2022-11-05T02:26:38.469Z,53128.21
2022-11-05T02:27:41.314Z,53130.22
2022-11-05T02:28:44.048Z,53156.27
2022-11-05T02:29:46.774Z,53102.16
2022-11-05T02:30:49.615Z,53126.21
2022-11-05T02:31:52.270Z,53181.32
2022-11-05T02:32:55.048Z,53076.11
2022-11-05T02:33:57.704Z,53055.07
2022-11-05T02:35:00.494Z,53054.06
2022-11-05T02:36:03.299Z,53088.13
2022-11-05T02:37:05.892Z,53116.19
2022-11-05T02:38:09.161Z,53158.28
2022-11-05T02:39:11.985Z,53175.31
2022-11-05T02:40:14.639Z,53099.16
2022-11-05T02:41:17.350Z,53017.99
2022-11-05T02:42:19.955Z,53029.01
2022-11-05T02:43:28.987Z,53051.06
2022-11-05T02:44:37.538Z,53064.08
2022-11-05T02:45:40.329Z,53158.28
2022-11-05T02:46:43.401Z,53159.28
2022-11-05T02:47:46.180Z,53190.34
2022-11-05T02:48:49.116Z,53193.35
2022-11-05T02:49:56.139Z,53138.23
2022-11-05T02:50:58.952Z,53089.14
2022-11-05T02:52:01.582Z,53156.27
2022-11-05T02:53:04.415Z,53201.37
2022-11-05T02:54:07.541Z,53127.21
2022-11-05T02:55:10.270Z,53043.04
2022-11-05T02:56:14.766Z,53072.10
2022-11-05T02:57:17.452Z,53090.14
2022-11-05T02:58:20.270Z,53120.20
2022-11-05T02:59:22.667Z,53134.23
2022-11-05T03:00:25.109Z,53133.23
2022-11-05T03:01:27.914Z,53129.22
2022-11-05T03:02:30.501Z,53181.32
2022-11-05T03:03:39.916Z,53121.20
2022-11-05T03:04:42.647Z,53208.38
2022-11-05T03:05:49.473Z,53241.45
2022-11-05T03:06:52.261Z,53290.55
2022-11-05T03:07:54.907Z,53233.43
2022-11-05T03:08:57.602Z,53262.50
2022-11-05T03:10:00.367Z,53183.33
2022-11-05T03:11:03.242Z,53236.44
2022-11-05T03:12:05.954Z,53175.31
2022-11-05T03:13:08.965Z,53160.28
2022-11-05T03:14:11.892Z,53207.38
2022-11-05T03:15:14.837Z,53254.48
2022-11-05T03:16:17.523Z,53272.52
2022-11-05T03:17:19.936Z,53316.61
2022-11-05T03:18:22.613Z,53265.50
2022-11-05T03:19:25.100Z,53283.54
2022-11-05T03:20:27.752Z,53235.44
2022-11-05T03:21:30.525Z,53249.47
2022-11-05T03:22:33.470Z,53226.42
2022-11-05T03:23:36.059Z,53209.38
2022-11-05T03:24:38.452Z,53234.44
2022-11-05T03:25:41.309Z,53281.54
2022-11-05T03:26:43.644Z,53297.57
2022-11-05T03:27:46.024Z,53345.67
2022-11-05T03:28:48.446Z,53377.74
2022-11-05T03:29:50.795Z,53477.95
2022-11-05T03:30:54.581Z,53452.90
2022-11-05T03:31:57.061Z,53458.91
2022-11-05T03:32:59.641Z,53445.89
2022-11-05T03:34:02.233Z,53486.97
2022-11-05T03:35:04.827Z,53485.97
2022-11-05T03:36:07.182Z,53449.89
2022-11-05T03:37:09.817Z,53605.23
2022-11-05T03:38:12.651Z,53685.41
2022-11-05T03:39:15.293Z,53608.24
2022-11-05T03:40:17.993Z,53511.03
2022-11-05T03:41:20.926Z,53619.26
2022-11-05T03:42:23.602Z,53539.09
2022-11-05T03:43:26.059Z,53604.23
2022-11-05T03:44:28.544Z,53643.31
2022-11-05T03:45:30.982Z,53658.35
2022-11-05T03:46:35.615Z,53577.17
2022-11-05T03:47:41.870Z,53565.14
2022-11-05T03:48:44.706Z,53590.20
2022-11-05T03:49:47.655Z,53627.28
2022-11-05T03:50:50.338Z,53711.46
2022-11-05T03:51:53.688Z,53679.39
2022-11-05T03:52:56.321Z,53785.63
2022-11-05T03:53:58.982Z,53824.72
2022-11-05T03:55:01.650Z,53705.45
2022-11-05T03:56:04.852Z,53628.28
2022-11-05T03:57:07.337Z,53579.18
2022-11-05T03:58:10.278Z,53666.37
2022-11-05T03:59:12.938Z,53709.46
2022-11-05T04:00:15.683Z,53730.51
2022-11-05T04:01:18.638Z,53671.37
2022-11-05T04:02:21.565Z,53637.30
2022-11-05T04:03:24.129Z,53708.46
2022-11-05T04:04:26.692Z,53763.58
2022-11-05T04:05:29.112Z,53781.62
2022-11-05T04:06:31.702Z,53748.55
2022-11-05T04:07:34.429Z,53610.24
2022-11-05T04:08:37.163Z,53676.39
2022-11-05T04:09:40.157Z,53717.48
2022-11-05T04:10:43.185Z,53725.50
2022-11-05T04:11:45.778Z,53598.21
2022-11-05T04:12:50.947Z,53421.83
2022-11-05T04:13:56.159Z,53441.88
2022-11-05T04:14:58.829Z,53422.84
2022-11-05T04:16:01.495Z,53537.08
2022-11-05T04:17:04.230Z,53603.23
2022-11-05T04:18:07.131Z,53578.17
2022-11-05T04:19:10.018Z,53601.22
2022-11-05T04:20:12.779Z,53641.31
2022-11-05T04:21:15.579Z,53650.33
2022-11-05T04:22:22.575Z,53642.31
2022-11-05T04:23:25.642Z,53719.48
2022-11-05T04:24:28.615Z,53803.67
2022-11-05T04:25:36.773Z,53850.78
2022-11-05T04:26:39.580Z,53933.96
2022-11-05T04:27:42.416Z,54032.19
2022-11-05T04:28:45.609Z,54008.13
2022-11-05T04:29:48.259Z,53945.99
2022-11-05T04:30:51.011Z,53771.60
2022-11-05T04:31:53.664Z,53625.27
2022-11-05T04:32:56.615Z,53555.12
2022-11-05T04:34:01.331Z,53574.16
2022-11-05T04:35:04.079Z,53767.59
2022-11-05T04:36:07.099Z,53990.09
2022-11-05T04:37:09.922Z,54080.30
2022-11-05T04:38:12.753Z,54196.57
2022-11-05T04:39:15.373Z,54114.38
2022-11-05T04:40:20.429Z,53889.86
2022-11-05T04:41:23.236Z,53770.60
2022-11-05T04:42:25.644Z,53830.73
2022-11-05T04:43:27.982Z,53970.05
2022-11-05T04:44:30.461Z,53954.01
2022-11-05T04:45:33.088Z,53775.61
2022-11-05T04:46:36.063Z,53688.41
2022-11-05T04:47:39.022Z,53734.52
2022-11-05T04:48:41.681Z,53749.55
2022-11-05T04:49:44.887Z,53669.37
2022-11-05T04:50:47.475Z,53687.41
2022-11-05T04:51:50.198Z,53766.59
2022-11-05T04:52:52.858Z,53764.58
2022-11-05T04:53:55.297Z,53841.75
2022-11-05T04:54:58.333Z,53919.93
2022-11-05T04:56:00.731Z,53980.07
2022-11-05T04:57:03.166Z,53792.64
2022-11-05T04:58:05.724Z,53579.18
2022-11-05T04:59:08.265Z,53519.04
2022-11-05T05:00:10.723Z,53476.95
2022-11-05T05:01:13.797Z,53534.08
2022-11-05T05:02:16.328Z,53747.55
2022-11-05T05:03:18.817Z,53742.54
2022-11-05T05:04:21.778Z,53787.64
2022-11-05T05:05:24.139Z,53773.60
2022-11-05T05:06:26.683Z,53730.51
2022-11-05T05:07:29.217Z,53764.58
2022-11-05T05:08:31.953Z,53714.47
2022-11-05T05:09:34.688Z,53657.34
2022-11-05T05:10:37.551Z,53670.37
2022-11-05T05:11:40.144Z,53713.47
2022-11-05T05:12:42.908Z,53642.31
2022-11-05T05:13:45.537Z,53571.16
2022-11-05T05:14:48.208Z,53493.99
2022-11-05T05:15:51.524Z,53436.87
2022-11-05T05:16:54.299Z,53505.01
2022-11-05T05:17:56.723Z,53495.99
2022-11-05T05:18:59.443Z,53447.89
2022-11-05T05:20:02.230Z,53398.79
2022-11-05T05:21:05.108Z,53442.88
2022-11-05T05:22:07.757Z,53545.10
2022-11-05T05:23:10.774Z,53554.12
2022-11-05T05:24:13.979Z,53542.09
2022-11-05T05:25:16.661Z,53602.22
2022-11-05T05:26:19.694Z,53562.14
2022-11-05T05:27:22.118Z,53531.07
2022-11-05T05:28:24.800Z,53531.07
2022-11-05T05:29:27.532Z,53504.01
2022-11-05T05:30:30.094Z,53503.01
2022-11-05T05:31:32.696Z,53513.03
2022-11-05T05:32:35.459Z,53484.97
2022-11-05T05:33:37.937Z,53572.16
2022-11-05T05:34:40.463Z,53537.08
2022-11-05T05:35:42.952Z,53419.83
2022-11-05T05:36:45.749Z,53422.84
2022-11-05T05:37:50.922Z,53504.01
2022-11-05T05:38:53.484Z,53506.02
2022-11-05T05:39:55.815Z,53564.14
2022-11-05T05:40:58.232Z,53627.28
2022-11-05T05:42:00.578Z,53745.54
2022-11-05T05:44:18.841Z,53689.41
2022-11-05T05:45:22.124Z,53705.45
2022-11-05T05:46:24.706Z,53935.97
2022-11-05T05:47:27.341Z,54033.19
2022-11-05T05:48:29.892Z,54039.21
2022-11-05T05:49:32.450Z,53950.00
2022-11-05T05:50:35.128Z,54006.13
2022-11-05T05:51:38.660Z,54100.35
2022-11-05T05:52:41.627Z,54062.26
2022-11-05T05:55:00.145Z,53969.04
2022-11-05T05:56:04.867Z,53978.06
2022-11-05T05:57:07.676Z,54006.13
2022-11-05T05:58:10.546Z,54066.27
2022-11-05T05:59:14.896Z,54220.62
2022-11-05T06:00:17.369Z,54293.80
2022-11-05T06:01:20.477Z,54444.16
2022-11-05T06:02:23.390Z,54592.52
2022-11-05T06:03:29.840Z,54667.70
2022-11-05T06:04:32.243Z,54766.94
2022-11-05T06:05:35.216Z,54952.41
2022-11-05T06:06:38.188Z,55117.83
2022-11-05T06:07:41.030Z,54898.27
2022-11-05T06:08:43.733Z,54720.83
2022-11-05T06:09:46.609Z,54713.81
2022-11-05T06:10:49.314Z,54900.28
2022-11-05T06:11:52.251Z,55039.63
2022-11-05T06:12:55.106Z,55094.77
2022-11-05T06:13:58.352Z,55109.81
2022-11-05T06:16:17.102Z,55192.02
2022-11-05T06:17:20.022Z,55207.06
2022-11-05T06:18:22.715Z,55187.01
2022-11-05T06:19:25.726Z,55203.05
2022-11-05T06:20:28.174Z,55199.04
2022-11-05T06:21:30.584Z,55125.85
2022-11-05T06:22:33.160Z,55061.69
2022-11-05T06:23:35.900Z,54884.23
2022-11-05T06:24:38.886Z,54840.13
2022-11-05T06:25:41.716Z,54860.18
2022-11-05T06:26:44.385Z,54755.91
2022-11-05T06:27:47.326Z,54683.74
2022-11-05T06:28:50.202Z,54633.61
2022-11-05T06:29:53.261Z,54683.74
2022-11-05T06:30:56.014Z,54667.70
2022-11-05T06:31:58.744Z,54774.96
2022-11-05T06:33:02.077Z,54813.06
2022-11-05T06:36:28.216Z,54675.72
2022-11-05T06:37:30.955Z,54636.62
2022-11-05T06:38:35.287Z,54605.55
2022-11-05T06:39:38.105Z,54677.72
2022-11-05T06:40:41.181Z,54672.71
2022-11-05T06:42:16.587Z,54675.72
2022-11-05T06:42:48.801Z,54658.68
2022-11-05T06:43:51.602Z,54626.60
2022-11-05T06:44:56.833Z,54550.41
2022-11-05T06:46:03.050Z,54538.38
2022-11-05T06:47:07.923Z,54653.66
2022-11-05T06:48:15.870Z,54640.63
2022-11-05T06:49:18.636Z,54728.85
2022-11-05T06:50:21.375Z,54823.08
2022-11-05T06:52:48.664Z,54796.02
2022-11-05T06:53:54.880Z,54752.91
2022-11-05T06:54:57.523Z,54682.73
2022-11-05T06:56:00.123Z,54775.96
2022-11-05T06:57:02.934Z,54713.81
2022-11-05T06:58:05.776Z,54683.74
2022-11-05T06:59:10.224Z,54579.48
2022-11-05T07:00:14.810Z,54448.16
2022-11-05T07:02:38.760Z,54385.02
2022-11-05T07:03:41.300Z,54455.18
2022-11-05T07:04:43.688Z,54533.37
2022-11-05T07:05:49.501Z,54643.64
2022-11-05T07:06:52.010Z,54734.86
2022-11-05T07:07:58.665Z,54770.95
2022-11-05T07:09:05.188Z,54596.52
2022-11-05T07:10:13.632Z,54648.65
2022-11-05T07:11:16.097Z,54646.64
2022-11-05T07:12:18.566Z,54582.49
2022-11-05T07:13:21.215Z,54592.52
2022-11-05T07:14:30.140Z,54467.21
2022-11-05T07:16:53.256Z,54454.18
2022-11-05T07:18:00.096Z,54449.17
2022-11-05T07:19:03.350Z,54337.90
2022-11-05T07:20:11.258Z,54254.71
2022-11-05T07:21:13.933Z,54264.73
2022-11-05T07:22:16.717Z,54352.94
2022-11-05T07:23:23.037Z,54401.05
2022-11-05T07:24:29.684Z,54426.11
2022-11-05T07:25:32.349Z,54593.52
2022-11-05T07:26:34.963Z,54680.73
2022-11-05T07:27:55.654Z,54822.08
2022-11-05T07:29:02.283Z,54852.16
2022-11-05T07:30:05.287Z,54888.25
2022-11-05T07:31:08.176Z,54910.30
2022-11-05T07:33:36.271Z,54858.17
2022-11-05T07:38:48.958Z,55191.02
2022-11-05T07:42:32.464Z,55525.90
2022-11-05T07:43:35.109Z,55624.16
2022-11-05T07:44:46.731Z,55098.78
2022-11-05T07:45:50.645Z,55658.25
2022-11-05T07:46:58.730Z,55720.42
2022-11-05T07:48:02.360Z,55708.39
2022-11-05T07:49:05.718Z,55686.33
2022-11-05T07:50:09.788Z,55626.17
2022-11-05T07:51:13.299Z,55570.02
2022-11-05T07:52:16.291Z,55489.80
2022-11-05T07:53:19.151Z,55364.47
2022-11-05T07:54:22.227Z,55309.32
2022-11-05T07:55:26.354Z,55272.23
2022-11-05T07:56:30.154Z,55224.11
2022-11-05T07:57:33.725Z,55167.96
2022-11-05T07:58:36.897Z,55132.87
2022-11-05T07:59:40.598Z,55146.91
2022-11-05T08:00:43.700Z,55152.92
2022-11-05T08:01:47.500Z,55100.79
2022-11-05T08:02:51.025Z,55097.78
2022-11-05T08:03:54.042Z,55161.95
2022-11-05T08:04:57.034Z,55164.95
2022-11-05T08:06:00.307Z,55201.04
2022-11-05T08:07:03.905Z,55285.26
2022-11-05T08:08:07.259Z,55315.34
2022-11-05T08:09:10.507Z,55345.42
2022-11-05T08:10:14.833Z,55370.48
2022-11-05T08:11:17.866Z,55412.60
2022-11-05T08:12:26.862Z,55485.79
2022-11-05T08:13:38.550Z,55556.98
2022-11-05T08:14:42.854Z,55586.06
2022-11-05T08:15:46.448Z,55623.16
2022-11-05T08:16:49.832Z,55621.15
2022-11-05T08:17:53.634Z,55665.27
2022-11-05T08:18:56.825Z,55646.22
2022-11-05T08:20:11.057Z,55651.23
2022-11-05T08:21:14.747Z,55673.30
2022-11-05T08:22:18.132Z,55698.36
2022-11-05T08:23:23.175Z,55654.24
2022-11-05T08:24:26.657Z,55633.19
2022-11-05T08:25:32.297Z,55656.25
2022-11-05T08:26:36.278Z,55673.30
2022-11-05T08:27:39.890Z,55653.24
2022-11-05T08:28:43.330Z,55646.22
2022-11-05T08:29:47.333Z,55654.24
2022-11-05T08:30:53.220Z,55680.31
2022-11-05T08:31:57.326Z,55633.19
2022-11-05T08:33:01.954Z,55691.34
2022-11-05T08:34:09.110Z,55709.39
2022-11-05T08:35:12.804Z,55682.32
2022-11-05T08:36:19.369Z,55703.38
2022-11-05T08:37:27.036Z,55707.39
2022-11-05T08:38:45.512Z,55750.50
2022-11-05T08:39:53.755Z,55780.59
2022-11-05T08:41:03.809Z,55854.79
2022-11-05T08:42:06.833Z,55885.88
2022-11-05T08:43:10.745Z,55899.92
2022-11-05T08:44:13.992Z,55885.88
2022-11-05T08:45:23.091Z,55864.82
2022-11-05T08:46:26.197Z,55842.76
2022-11-05T08:47:30.215Z,55832.73
2022-11-05T08:48:33.884Z,55840.75
2022-11-05T08:49:42.396Z,55782.59
2022-11-05T08:50:45.989Z,55780.59
2022-11-05T08:51:49.468Z,55854.79
2022-11-05T08:52:52.965Z,55851.79
2022-11-05T08:53:58.194Z,55849.78
2022-11-05T08:55:02.612Z,55839.75
2022-11-05T08:56:11.253Z,55868.83
2022-11-05T08:57:14.916Z,55854.79
2022-11-05T08:59:38.830Z,55869.83
2022-11-05T09:00:42.475Z,55920.97
2022-11-05T09:01:46.261Z,55919.97
2022-11-05T09:02:49.558Z,55973.12
2022-11-05T09:03:52.645Z,56058.36
2022-11-05T09:04:57.144Z,56145.60
2022-11-05T09:06:10.819Z,56166.66
2022-11-05T09:07:13.968Z,56240.87
2022-11-05T09:08:22.161Z,56297.04
2022-11-05T09:09:25.343Z,56255.92
2022-11-05T09:10:34.976Z,56376.26
2022-11-05T09:12:10.645Z,56377.27
2022-11-05T09:12:49.225Z,56458.50
2022-11-05T09:13:52.536Z,56457.50
2022-11-05T09:14:56.012Z,56533.72
2022-11-05T09:16:04.811Z,56548.76
2022-11-05T09:17:08.093Z,56623.98
2022-11-05T09:18:10.946Z,56769.42
2022-11-05T09:19:19.983Z,56841.63
2022-11-05T09:20:27.073Z,56966.01
2022-11-05T09:21:30.548Z,56967.01
2022-11-05T09:22:43.414Z,57031.21
2022-11-05T09:23:46.329Z,57077.35
2022-11-05T09:24:59.359Z,57149.57
2022-11-05T09:26:03.044Z,57217.78
2022-11-05T09:27:06.345Z,57372.26
2022-11-05T09:28:16.461Z,57508.69
2022-11-05T09:29:17.136Z,57585.94
2022-11-05T09:30:27.142Z,57612.02
2022-11-05T09:31:37.075Z,57639.11
2022-11-05T09:32:40.765Z,57662.18
2022-11-05T09:33:47.683Z,57679.23
2022-11-05T09:34:51.336Z,57632.08
2022-11-05T09:35:55.535Z,57634.09
2022-11-05T09:36:58.619Z,57570.89
2022-11-05T09:38:01.807Z,57589.95
2022-11-05T09:39:05.658Z,57618.04
2022-11-05T09:40:09.491Z,57616.03
2022-11-05T09:41:20.046Z,57644.12
2022-11-05T09:42:23.242Z,57708.33
2022-11-05T09:43:31.499Z,57681.24
2022-11-05T09:44:31.446Z,57688.27
2022-11-05T09:45:35.422Z,57692.28
2022-11-05T09:46:40.562Z,57686.26
2022-11-05T09:47:49.876Z,57762.50
2022-11-05T09:48:52.782Z,57789.59
2022-11-05T09:49:59.833Z,57832.73
2022-11-05T09:51:03.535Z,57886.91
2022-11-05T09:52:06.393Z,57970.18
2022-11-05T09:53:10.857Z,58030.38
2022-11-05T09:54:15.750Z,58085.56
2022-11-05T09:55:19.221Z,58147.77
2022-11-05T09:56:23.648Z,58140.75
2022-11-05T09:57:26.922Z,58152.79
2022-11-05T09:58:32.666Z,58155.79
2022-11-05T09:59:39.050Z,58159.81
2022-11-05T10:00:42.589Z,58127.70
2022-11-05T10:01:46.750Z,58126.70
2022-11-05T10:02:50.832Z,58107.63
2022-11-05T10:03:53.813Z,58111.65
2022-11-05T10:05:09.192Z,58117.67
2022-11-05T10:06:08.192Z,58155.79
2022-11-05T10:07:12.146Z,58188.91
2022-11-05T10:08:15.334Z,58139.74
2022-11-05T10:09:19.945Z,58127.70
2022-11-05T10:10:23.743Z,58117.67
2022-11-05T10:11:27.234Z,58073.52
2022-11-05T10:12:31.953Z,58091.58
2022-11-05T10:13:41.016Z,58073.52
2022-11-05T10:14:48.969Z,58059.48
2022-11-05T10:16:03.092Z,58034.39
2022-11-05T10:17:14.596Z,58088.57
2022-11-05T10:18:18.782Z,58069.51
2022-11-05T10:19:22.335Z,58099.61
2022-11-05T10:20:29.041Z,58125.70
2022-11-05T10:22:04.254Z,58159.81
2022-11-05T10:22:37.474Z,58189.91
2022-11-05T10:23:49.877Z,58276.20
2022-11-05T10:25:00.695Z,58238.07
2022-11-05T10:26:17.374Z,58338.41
2022-11-05T10:27:20.390Z,58385.57
2022-11-05T10:28:24.235Z,58455.80
2022-11-05T10:29:27.794Z,58448.78
2022-11-05T10:30:31.179Z,58504.98
2022-11-05T10:31:35.672Z,58544.11
2022-11-05T10:32:39.186Z,58605.32
2022-11-05T10:33:46.141Z,58661.51
2022-11-05T10:34:49.596Z,58669.54
2022-11-05T10:35:53.844Z,58773.90
2022-11-05T10:36:56.613Z,58887.30
2022-11-05T10:38:11.140Z,58953.54
2022-11-05T10:39:16.705Z,59007.73
2022-11-05T10:40:20.016Z,59068.94
2022-11-05T10:41:22.944Z,59104.07
2022-11-05T10:42:26.329Z,59147.22
2022-11-05T10:43:31.020Z,59239.55
2022-11-05T10:44:34.538Z,59304.79
2022-11-05T10:45:46.471Z,59421.21
2022-11-05T10:48:10.215Z,59650.05
2022-11-05T10:49:15.435Z,59845.79
2022-11-05T10:50:29.258Z,59918.06
2022-11-05T10:51:35.721Z,60243.30
2022-11-05T10:52:39.634Z,60243.30
2022-11-05T10:53:42.525Z,60328.63
2022-11-05T10:54:49.665Z,60426.01
2022-11-05T10:57:14.982Z,60569.57
2022-11-05T10:58:19.284Z,60736.23
2022-11-05T11:00:44.204Z,60832.62
2022-11-05T11:03:13.944Z,61010.33
2022-11-05T11:04:17.777Z,61107.73
2022-11-05T11:05:21.275Z,61134.84
2022-11-05T11:06:24.650Z,61166.97
2022-11-05T11:07:29.193Z,61170.98
2022-11-05T11:08:36.461Z,61236.25
2022-11-05T11:09:39.444Z,61287.46
2022-11-05T11:10:52.092Z,61349.72
2022-11-05T11:11:58.597Z,61353.74
2022-11-05T11:13:03.226Z,61418.00
2022-11-05T11:14:15.043Z,61448.13
2022-11-05T11:15:22.885Z,61512.39
2022-11-05T11:16:26.491Z,61582.69
2022-11-05T11:17:32.870Z,61577.67
2022-11-05T11:18:39.896Z,61584.70
2022-11-05T11:19:40.432Z,61576.66
2022-11-05T11:20:48.725Z,61573.65
2022-11-05T11:21:56.515Z,61594.74
2022-11-05T11:23:00.002Z,61562.61
2022-11-05T11:24:10.421Z,61600.77
2022-11-05T11:25:13.033Z,61582.69
2022-11-05T11:27:37.728Z,61616.83
2022-11-05T11:28:47.919Z,61682.11
2022-11-05T11:29:52.492Z,61656.00
2022-11-05T11:30:56.184Z,61671.06
2022-11-05T11:31:59.768Z,61693.15
2022-11-05T11:33:06.650Z,61636.92
2022-11-05T11:34:12.383Z,61644.95
2022-11-05T11:35:15.799Z,61686.12
2022-11-05T11:36:19.990Z,61643.95
2022-11-05T11:37:23.564Z,61662.02
2022-11-05T11:38:27.973Z,61657.00
2022-11-05T11:39:31.059Z,61672.07
2022-11-05T11:40:34.679Z,61682.11
2022-11-05T11:41:37.716Z,61689.14
2022-11-05T11:42:41.844Z,61673.07
2022-11-05T11:43:45.534Z,61690.14
2022-11-05T11:44:50.657Z,61689.14
2022-11-05T11:46:06.087Z,61638.93
2022-11-05T11:47:07.365Z,61602.77
2022-11-05T11:48:10.642Z,61632.90
2022-11-05T11:49:17.823Z,61616.83
2022-11-05T11:50:24.165Z,61548.55
2022-11-05T11:51:27.231Z,61546.54
2022-11-05T11:52:30.646Z,61530.47
2022-11-05T11:53:34.744Z,61480.26
2022-11-05T11:54:37.729Z,61433.07
2022-11-05T11:55:40.684Z,61370.81
2022-11-05T11:56:44.386Z,61351.73
2022-11-05T11:57:47.792Z,61261.36
2022-11-05T11:58:51.776Z,61265.37
2022-11-05T12:00:08.271Z,61197.09
2022-11-05T12:00:59.784Z,61159.94
2022-11-05T12:02:03.339Z,61110.74
2022-11-05T12:03:06.757Z,61114.76
2022-11-05T12:04:10.456Z,61080.62
2022-11-05T12:05:13.896Z,61008.32
2022-11-05T12:07:38.641Z,60949.09
2022-11-05T12:08:45.756Z,61010.33
2022-11-05T12:09:48.378Z,60939.04
2022-11-05T12:10:52.991Z,60885.83
2022-11-05T12:11:56.378Z,60860.73
2022-11-05T12:13:00.059Z,60830.61
2022-11-05T12:14:09.069Z,60758.32
2022-11-05T12:15:13.087Z,60711.13
2022-11-05T12:16:16.477Z,60632.82
2022-11-05T12:17:29.623Z,60614.75
2022-11-05T12:18:33.298Z,60528.41
2022-11-05T12:19:40.694Z,60509.33
2022-11-05T12:20:47.231Z,60436.05
2022-11-05T12:21:52.863Z,60403.92
2022-11-05T12:22:55.846Z,60340.68
2022-11-05T12:23:59.536Z,60294.50
2022-11-05T12:25:02.516Z,60252.34
2022-11-05T12:26:06.945Z,60206.16
2022-11-05T12:27:09.901Z,60239.29
2022-11-05T12:28:12.883Z,60241.29
2022-11-05T12:29:19.602Z,60238.28
2022-11-05T12:30:20.377Z,60234.27
2022-11-05T12:31:23.768Z,60234.27
2022-11-05T12:32:27.609Z,60225.23
2022-11-05T12:33:32.366Z,60272.41
2022-11-05T12:34:36.985Z,60221.21
2022-11-05T12:35:45.737Z,60249.32
2022-11-05T12:36:44.894Z,60241.29
2022-11-05T12:37:47.969Z,60260.37
2022-11-05T12:40:13.085Z,60255.34
2022-11-05T12:41:16.862Z,60327.63
2022-11-05T12:42:20.360Z,60306.54
2022-11-05T12:43:23.637Z,60298.51
2022-11-05T12:44:27.017Z,60303.53
2022-11-05T12:45:30.407Z,60332.64
2022-11-05T12:46:33.806Z,60306.54
2022-11-05T12:47:37.398Z,60325.62
2022-11-05T12:48:41.304Z,60327.63
2022-11-05T12:49:44.676Z,60321.60
2022-11-05T12:50:48.059Z,60276.43
2022-11-05T12:51:51.244Z,60230.25
2022-11-05T12:52:54.325Z,60216.20
2022-11-05T12:53:57.917Z,60241.29
2022-11-05T12:55:03.882Z,60238.28
2022-11-05T12:56:08.616Z,60213.18
2022-11-05T12:57:11.454Z,60250.33
2022-11-05T12:58:16.684Z,60267.39
2022-11-05T12:59:19.773Z,60283.45
2022-11-05T13:00:37.509Z,60308.55